sensor_id;sensor_type;location;lat;lon;timestamp;temperature;humidity
76172;DHT22;64929;51.178;4.138;2024-01-30T00:01:52;11.00;99.90
76172;DHT22;64929;51.178;4.138;2024-01-30T00:04:18;11.10;99.90
76172;DHT22;64929;51.178;4.138;2024-01-30T00:06:44;11.10;99.90
76172;DHT22;64929;51.178;4.138;2024-01-30T00:09:10;11.00;99.90
76172;DHT22;64929;51.178;4.138;2024-01-30T00:11:37;11.00;99.90
76172;DHT22;64929;51.178;4.138;2024-01-30T00:14:03;11.10;99.90
76172;DHT22;64929;51.178;4.138;2024-01-30T00:16:29;11.10;99.90
76172;DHT22;64929;51.178;4.138;2024-01-30T00:18:55;11.10;99.90
76172;DHT22;64929;51.178;4.138;2024-01-30T00:21:21;11.20;99.90
76172;DHT22;64929;51.178;4.138;2024-01-30T00:23:47;11.10;99.90
76172;DHT22;64929;51.178;4.138;2024-01-30T00:26:13;11.00;99.90
76172;DHT22;64929;51.178;4.138;2024-01-30T00:28:40;11.00;99.90
76172;DHT22;64929;51.178;4.138;2024-01-30T00:31:07;11.00;99.90
76172;DHT22;64929;51.178;4.138;2024-01-30T00:33:34;11.10;99.90
76172;DHT22;64929;51.178;4.138;2024-01-30T00:36:00;11.10;99.90
76172;DHT22;64929;51.178;4.138;2024-01-30T00:38:26;11.10;99.90
76172;DHT22;64929;51.178;4.138;2024-01-30T00:40:51;11.10;99.90
76172;DHT22;64929;51.178;4.138;2024-01-30T00:43:17;11.10;99.90
76172;DHT22;64929;51.178;4.138;2024-01-30T00:45:46;11.10;99.90
76172;DHT22;64929;51.178;4.138;2024-01-30T00:48:11;11.10;99.90
76172;DHT22;64929;51.178;4.138;2024-01-30T00:50:37;11.10;99.90
76172;DHT22;64929;51.178;4.138;2024-01-30T00:53:03;11.10;99.90
76172;DHT22;64929;51.178;4.138;2024-01-30T00:55:29;11.00;99.90
76172;DHT22;64929;51.178;4.138;2024-01-30T00:57:54;11.00;99.90
76172;DHT22;64929;51.178;4.138;2024-01-30T01:00:20;11.10;99.90
76172;DHT22;64929;51.178;4.138;2024-01-30T01:02:46;11.10;99.90
76172;DHT22;64929;51.178;4.138;2024-01-30T01:05:12;11.20;99.90
76172;DHT22;64929;51.178;4.138;2024-01-30T01:07:38;11.20;99.90
76172;DHT22;64929;51.178;4.138;2024-01-30T01:10:06;11.20;99.90
76172;DHT22;64929;51.178;4.138;2024-01-30T01:12:31;11.20;99.90
76172;DHT22;64929;51.178;4.138;2024-01-30T01:14:57;11.10;99.90
76172;DHT22;64929;51.178;4.138;2024-01-30T01:17:23;11.20;99.90
76172;DHT22;64929;51.178;4.138;2024-01-30T01:19:49;11.10;99.90
76172;DHT22;64929;51.178;4.138;2024-01-30T01:22:15;11.30;99.90
76172;DHT22;64929;51.178;4.138;2024-01-30T01:24:42;11.20;99.90
76172;DHT22;64929;51.178;4.138;2024-01-30T01:27:08;11.10;99.90
76172;DHT22;64929;51.178;4.138;2024-01-30T01:29:34;11.20;99.90
76172;DHT22;64929;51.178;4.138;2024-01-30T01:31:59;11.20;99.90
76172;DHT22;64929;51.178;4.138;2024-01-30T01:34:25;11.20;99.90
76172;DHT22;64929;51.178;4.138;2024-01-30T01:36:51;11.10;99.90
76172;DHT22;64929;51.178;4.138;2024-01-30T01:39:17;11.20;99.90
76172;DHT22;64929;51.178;4.138;2024-01-30T01:41:43;11.10;99.90
76172;DHT22;64929;51.178;4.138;2024-01-30T01:44:09;11.00;99.90
76172;DHT22;64929;51.178;4.138;2024-01-30T01:46:35;11.00;99.90
76172;DHT22;64929;51.178;4.138;2024-01-30T01:49:02;11.00;99.90
76172;DHT22;64929;51.178;4.138;2024-01-30T01:51:31;11.00;99.90
76172;DHT22;64929;51.178;4.138;2024-01-30T01:54:04;10.90;99.90
76172;DHT22;64929;51.178;4.138;2024-01-30T01:56:31;11.10;99.90
76172;DHT22;64929;51.178;4.138;2024-01-30T01:59:00;11.10;99.90
76172;DHT22;64929;51.178;4.138;2024-01-30T02:01:29;11.10;99.90
76172;DHT22;64929;51.178;4.138;2024-01-30T02:03:55;11.00;99.90
76172;DHT22;64929;51.178;4.138;2024-01-30T02:06:21;11.10;99.90
76172;DHT22;64929;51.178;4.138;2024-01-30T02:08:48;11.10;99.90
76172;DHT22;64929;51.178;4.138;2024-01-30T02:11:14;11.10;99.90
76172;DHT22;64929;51.178;4.138;2024-01-30T02:13:41;11.10;99.90
76172;DHT22;64929;51.178;4.138;2024-01-30T02:16:06;11.00;99.90
76172;DHT22;64929;51.178;4.138;2024-01-30T02:18:32;11.00;99.90
76172;DHT22;64929;51.178;4.138;2024-01-30T02:20:58;11.00;99.90
76172;DHT22;64929;51.178;4.138;2024-01-30T02:23:27;11.10;99.90
76172;DHT22;64929;51.178;4.138;2024-01-30T02:25:53;11.20;99.90
76172;DHT22;64929;51.178;4.138;2024-01-30T02:28:19;11.20;99.90
76172;DHT22;64929;51.178;4.138;2024-01-30T02:30:46;11.20;99.90
76172;DHT22;64929;51.178;4.138;2024-01-30T02:33:12;11.20;99.90
76172;DHT22;64929;51.178;4.138;2024-01-30T02:35:38;11.30;99.90
76172;DHT22;64929;51.178;4.138;2024-01-30T02:38:04;11.30;99.90
76172;DHT22;64929;51.178;4.138;2024-01-30T02:40:31;11.30;99.90
76172;DHT22;64929;51.178;4.138;2024-01-30T02:42:59;11.30;99.90
76172;DHT22;64929;51.178;4.138;2024-01-30T02:45:25;11.30;99.90
76172;DHT22;64929;51.178;4.138;2024-01-30T02:47:50;11.50;99.90
76172;DHT22;64929;51.178;4.138;2024-01-30T02:50:16;11.50;99.90
76172;DHT22;64929;51.178;4.138;2024-01-30T02:52:42;11.40;99.90
76172;DHT22;64929;51.178;4.138;2024-01-30T02:55:11;11.40;99.90
76172;DHT22;64929;51.178;4.138;2024-01-30T02:57:39;11.40;99.90
76172;DHT22;64929;51.178;4.138;2024-01-30T03:00:05;11.40;99.90
76172;DHT22;64929;51.178;4.138;2024-01-30T03:02:34;11.30;99.90
76172;DHT22;64929;51.178;4.138;2024-01-30T03:05:00;11.40;99.90
76172;DHT22;64929;51.178;4.138;2024-01-30T03:07:26;11.30;99.90
76172;DHT22;64929;51.178;4.138;2024-01-30T03:09:52;11.40;99.90
76172;DHT22;64929;51.178;4.138;2024-01-30T03:12:18;11.40;99.90
76172;DHT22;64929;51.178;4.138;2024-01-30T03:14:43;11.30;99.90
76172;DHT22;64929;51.178;4.138;2024-01-30T03:17:09;11.40;99.90
76172;DHT22;64929;51.178;4.138;2024-01-30T03:19:35;11.40;99.90
76172;DHT22;64929;51.178;4.138;2024-01-30T03:22:01;11.50;99.90
76172;DHT22;64929;51.178;4.138;2024-01-30T03:24:26;11.50;99.90
76172;DHT22;64929;51.178;4.138;2024-01-30T03:26:53;11.50;99.90
76172;DHT22;64929;51.178;4.138;2024-01-30T03:29:19;11.60;99.90
76172;DHT22;64929;51.178;4.138;2024-01-30T03:31:45;11.50;99.90
76172;DHT22;64929;51.178;4.138;2024-01-30T03:34:10;11.60;99.90
76172;DHT22;64929;51.178;4.138;2024-01-30T03:36:36;11.50;99.90
76172;DHT22;64929;51.178;4.138;2024-01-30T03:39:02;11.50;99.90
76172;DHT22;64929;51.178;4.138;2024-01-30T03:41:27;11.50;99.90
76172;DHT22;64929;51.178;4.138;2024-01-30T03:43:53;11.40;99.90
76172;DHT22;64929;51.178;4.138;2024-01-30T03:46:19;11.40;99.90
76172;DHT22;64929;51.178;4.138;2024-01-30T03:48:47;11.30;99.90
76172;DHT22;64929;51.178;4.138;2024-01-30T03:51:13;11.30;99.90
76172;DHT22;64929;51.178;4.138;2024-01-30T03:53:43;11.30;99.90
76172;DHT22;64929;51.178;4.138;2024-01-30T03:56:09;11.30;99.90
76172;DHT22;64929;51.178;4.138;2024-01-30T03:58:35;11.40;99.90
76172;DHT22;64929;51.178;4.138;2024-01-30T04:01:01;11.40;99.90
76172;DHT22;64929;51.178;4.138;2024-01-30T04:03:26;11.40;99.90
76172;DHT22;64929;51.178;4.138;2024-01-30T04:05:52;11.40;99.90
76172;DHT22;64929;51.178;4.138;2024-01-30T04:08:18;11.40;99.90
76172;DHT22;64929;51.178;4.138;2024-01-30T04:10:44;11.40;99.90
76172;DHT22;64929;51.178;4.138;2024-01-30T04:13:10;11.40;99.90
76172;DHT22;64929;51.178;4.138;2024-01-30T04:15:36;11.40;99.90
76172;DHT22;64929;51.178;4.138;2024-01-30T04:18:01;11.30;99.90
76172;DHT22;64929;51.178;4.138;2024-01-30T04:20:27;11.40;99.90
76172;DHT22;64929;51.178;4.138;2024-01-30T04:22:53;11.50;99.90
76172;DHT22;64929;51.178;4.138;2024-01-30T04:25:19;11.60;99.90
76172;DHT22;64929;51.178;4.138;2024-01-30T04:27:44;11.50;99.90
76172;DHT22;64929;51.178;4.138;2024-01-30T04:30:10;11.40;99.90
76172;DHT22;64929;51.178;4.138;2024-01-30T04:32:36;11.30;99.90
76172;DHT22;64929;51.178;4.138;2024-01-30T04:35:03;11.40;99.90
76172;DHT22;64929;51.178;4.138;2024-01-30T04:37:29;11.30;99.90
76172;DHT22;64929;51.178;4.138;2024-01-30T04:39:54;11.20;99.90
76172;DHT22;64929;51.178;4.138;2024-01-30T04:42:20;11.30;99.90
76172;DHT22;64929;51.178;4.138;2024-01-30T04:44:46;11.20;99.90
76172;DHT22;64929;51.178;4.138;2024-01-30T04:47:11;11.30;99.90
76172;DHT22;64929;51.178;4.138;2024-01-30T04:49:40;11.30;99.90
76172;DHT22;64929;51.178;4.138;2024-01-30T04:52:07;11.40;99.90
76172;DHT22;64929;51.178;4.138;2024-01-30T04:54:33;11.30;99.90
76172;DHT22;64929;51.178;4.138;2024-01-30T04:56:58;11.20;99.90
76172;DHT22;64929;51.178;4.138;2024-01-30T04:59:24;11.40;99.90
76172;DHT22;64929;51.178;4.138;2024-01-30T05:01:50;11.40;99.90
76172;DHT22;64929;51.178;4.138;2024-01-30T05:04:16;11.40;99.90
76172;DHT22;64929;51.178;4.138;2024-01-30T05:06:41;11.40;99.90
76172;DHT22;64929;51.178;4.138;2024-01-30T05:09:07;11.30;99.90
76172;DHT22;64929;51.178;4.138;2024-01-30T05:11:40;11.30;99.90
76172;DHT22;64929;51.178;4.138;2024-01-30T05:14:07;11.20;99.90
76172;DHT22;64929;51.178;4.138;2024-01-30T05:16:34;11.10;99.90
76172;DHT22;64929;51.178;4.138;2024-01-30T05:19:00;11.20;99.90
76172;DHT22;64929;51.178;4.138;2024-01-30T05:21:26;11.20;99.90
76172;DHT22;64929;51.178;4.138;2024-01-30T05:23:52;11.20;99.90
76172;DHT22;64929;51.178;4.138;2024-01-30T05:26:17;11.10;99.90
76172;DHT22;64929;51.178;4.138;2024-01-30T05:28:44;11.10;99.90
76172;DHT22;64929;51.178;4.138;2024-01-30T05:31:12;11.00;99.90
76172;DHT22;64929;51.178;4.138;2024-01-30T05:33:37;11.10;99.90
76172;DHT22;64929;51.178;4.138;2024-01-30T05:36:03;11.10;99.90
76172;DHT22;64929;51.178;4.138;2024-01-30T05:38:29;11.20;99.90
76172;DHT22;64929;51.178;4.138;2024-01-30T05:40:56;11.30;99.90
76172;DHT22;64929;51.178;4.138;2024-01-30T05:43:23;11.30;99.90
76172;DHT22;64929;51.178;4.138;2024-01-30T05:45:49;11.40;99.90
76172;DHT22;64929;51.178;4.138;2024-01-30T05:48:14;11.30;99.90
76172;DHT22;64929;51.178;4.138;2024-01-30T05:50:40;11.20;99.90
76172;DHT22;64929;51.178;4.138;2024-01-30T05:53:06;11.20;99.90
76172;DHT22;64929;51.178;4.138;2024-01-30T05:55:31;11.20;99.90
76172;DHT22;64929;51.178;4.138;2024-01-30T05:57:57;11.30;99.90
76172;DHT22;64929;51.178;4.138;2024-01-30T06:00:23;11.30;99.90
76172;DHT22;64929;51.178;4.138;2024-01-30T06:02:49;11.30;99.90
76172;DHT22;64929;51.178;4.138;2024-01-30T06:05:14;11.30;99.90
76172;DHT22;64929;51.178;4.138;2024-01-30T06:07:40;11.20;99.90
76172;DHT22;64929;51.178;4.138;2024-01-30T06:10:06;11.20;99.90
76172;DHT22;64929;51.178;4.138;2024-01-30T06:12:32;11.20;99.90
76172;DHT22;64929;51.178;4.138;2024-01-30T06:14:58;11.20;99.90
76172;DHT22;64929;51.178;4.138;2024-01-30T06:17:24;11.20;99.90
76172;DHT22;64929;51.178;4.138;2024-01-30T06:19:49;11.10;99.90
76172;DHT22;64929;51.178;4.138;2024-01-30T06:22:16;11.10;99.90
76172;DHT22;64929;51.178;4.138;2024-01-30T06:24:42;11.10;99.90
76172;DHT22;64929;51.178;4.138;2024-01-30T06:27:10;11.20;99.90
76172;DHT22;64929;51.178;4.138;2024-01-30T06:29:36;11.20;99.90
76172;DHT22;64929;51.178;4.138;2024-01-30T06:32:02;11.20;99.90
76172;DHT22;64929;51.178;4.138;2024-01-30T06:34:27;11.20;99.90
76172;DHT22;64929;51.178;4.138;2024-01-30T06:36:53;11.20;99.90
76172;DHT22;64929;51.178;4.138;2024-01-30T06:39:19;11.30;99.90
76172;DHT22;64929;51.178;4.138;2024-01-30T06:41:44;11.20;99.90
76172;DHT22;64929;51.178;4.138;2024-01-30T06:44:12;11.30;99.90
76172;DHT22;64929;51.178;4.138;2024-01-30T06:46:38;11.30;99.90
76172;DHT22;64929;51.178;4.138;2024-01-30T06:49:04;11.30;99.90
76172;DHT22;64929;51.178;4.138;2024-01-30T06:51:30;11.20;99.90
76172;DHT22;64929;51.178;4.138;2024-01-30T06:53:55;11.30;99.90
76172;DHT22;64929;51.178;4.138;2024-01-30T06:56:21;11.20;99.90
76172;DHT22;64929;51.178;4.138;2024-01-30T06:58:50;11.30;99.90
76172;DHT22;64929;51.178;4.138;2024-01-30T07:01:16;11.30;99.90
76172;DHT22;64929;51.178;4.138;2024-01-30T07:03:42;11.30;99.90
76172;DHT22;64929;51.178;4.138;2024-01-30T07:06:09;11.30;99.90
76172;DHT22;64929;51.178;4.138;2024-01-30T07:08:36;11.30;99.90
76172;DHT22;64929;51.178;4.138;2024-01-30T07:11:05;11.40;99.90
76172;DHT22;64929;51.178;4.138;2024-01-30T07:13:31;11.40;99.90
76172;DHT22;64929;51.178;4.138;2024-01-30T07:15:57;11.30;99.90
76172;DHT22;64929;51.178;4.138;2024-01-30T07:18:23;11.30;99.90
76172;DHT22;64929;51.178;4.138;2024-01-30T07:20:49;11.30;99.90
76172;DHT22;64929;51.178;4.138;2024-01-30T07:23:15;11.40;99.90
76172;DHT22;64929;51.178;4.138;2024-01-30T07:25:44;11.50;99.90
76172;DHT22;64929;51.178;4.138;2024-01-30T07:28:10;11.50;99.90
76172;DHT22;64929;51.178;4.138;2024-01-30T07:30:37;11.30;99.90
76172;DHT22;64929;51.178;4.138;2024-01-30T07:33:03;11.40;99.90
76172;DHT22;64929;51.178;4.138;2024-01-30T07:35:29;11.30;99.90
76172;DHT22;64929;51.178;4.138;2024-01-30T07:37:55;11.30;99.90
76172;DHT22;64929;51.178;4.138;2024-01-30T07:40:20;11.30;99.90
76172;DHT22;64929;51.178;4.138;2024-01-30T07:42:48;11.40;99.90
76172;DHT22;64929;51.178;4.138;2024-01-30T07:45:13;11.40;99.90
76172;DHT22;64929;51.178;4.138;2024-01-30T07:47:39;11.50;99.90
76172;DHT22;64929;51.178;4.138;2024-01-30T07:50:05;11.50;99.90
76172;DHT22;64929;51.178;4.138;2024-01-30T07:52:31;11.50;99.90
76172;DHT22;64929;51.178;4.138;2024-01-30T07:54:57;11.60;99.90
76172;DHT22;64929;51.178;4.138;2024-01-30T07:57:25;11.60;99.90
76172;DHT22;64929;51.178;4.138;2024-01-30T07:59:51;11.60;99.90
76172;DHT22;64929;51.178;4.138;2024-01-30T08:02:17;11.60;99.90
76172;DHT22;64929;51.178;4.138;2024-01-30T08:04:42;11.60;99.90
76172;DHT22;64929;51.178;4.138;2024-01-30T08:07:08;11.50;99.90
76172;DHT22;64929;51.178;4.138;2024-01-30T08:09:34;11.50;99.90
76172;DHT22;64929;51.178;4.138;2024-01-30T08:11:59;11.50;99.90
76172;DHT22;64929;51.178;4.138;2024-01-30T08:14:25;11.50;99.90
76172;DHT22;64929;51.178;4.138;2024-01-30T08:16:51;11.50;99.90
76172;DHT22;64929;51.178;4.138;2024-01-30T08:19:17;11.40;99.90
76172;DHT22;64929;51.178;4.138;2024-01-30T08:21:42;11.50;99.90
76172;DHT22;64929;51.178;4.138;2024-01-30T08:24:08;11.50;99.90
76172;DHT22;64929;51.178;4.138;2024-01-30T08:26:34;11.50;99.90
76172;DHT22;64929;51.178;4.138;2024-01-30T08:29:01;11.50;99.90
76172;DHT22;64929;51.178;4.138;2024-01-30T08:31:27;11.50;99.90
76172;DHT22;64929;51.178;4.138;2024-01-30T08:33:52;11.60;99.90
76172;DHT22;64929;51.178;4.138;2024-01-30T08:36:19;11.70;99.90
76172;DHT22;64929;51.178;4.138;2024-01-30T08:38:45;11.70;99.90
76172;DHT22;64929;51.178;4.138;2024-01-30T08:41:11;11.70;99.90
76172;DHT22;64929;51.178;4.138;2024-01-30T08:43:37;11.60;99.90
76172;DHT22;64929;51.178;4.138;2024-01-30T08:46:03;11.70;99.90
76172;DHT22;64929;51.178;4.138;2024-01-30T08:48:29;11.70;99.90
76172;DHT22;64929;51.178;4.138;2024-01-30T08:50:54;11.70;99.90
76172;DHT22;64929;51.178;4.138;2024-01-30T08:53:20;11.60;99.90
76172;DHT22;64929;51.178;4.138;2024-01-30T08:55:46;11.70;99.90
76172;DHT22;64929;51.178;4.138;2024-01-30T08:58:12;11.60;99.90
76172;DHT22;64929;51.178;4.138;2024-01-30T09:00:38;11.70;99.90
76172;DHT22;64929;51.178;4.138;2024-01-30T09:03:04;11.70;99.90
76172;DHT22;64929;51.178;4.138;2024-01-30T09:05:29;11.70;99.90
76172;DHT22;64929;51.178;4.138;2024-01-30T09:07:55;11.70;99.90
76172;DHT22;64929;51.178;4.138;2024-01-30T09:10:21;11.80;99.90
76172;DHT22;64929;51.178;4.138;2024-01-30T09:12:47;11.70;99.90
76172;DHT22;64929;51.178;4.138;2024-01-30T09:15:13;11.70;99.90
76172;DHT22;64929;51.178;4.138;2024-01-30T09:17:39;11.60;99.90
76172;DHT22;64929;51.178;4.138;2024-01-30T09:20:05;11.60;99.90
76172;DHT22;64929;51.178;4.138;2024-01-30T09:22:31;11.80;99.90
76172;DHT22;64929;51.178;4.138;2024-01-30T09:24:57;12.00;99.90
76172;DHT22;64929;51.178;4.138;2024-01-30T09:27:23;12.00;99.90
76172;DHT22;64929;51.178;4.138;2024-01-30T09:29:49;12.00;99.90
76172;DHT22;64929;51.178;4.138;2024-01-30T09:32:15;12.10;99.90
76172;DHT22;64929;51.178;4.138;2024-01-30T09:34:41;12.10;99.90
76172;DHT22;64929;51.178;4.138;2024-01-30T09:37:07;12.00;99.90
76172;DHT22;64929;51.178;4.138;2024-01-30T09:39:33;12.00;99.90
76172;DHT22;64929;51.178;4.138;2024-01-30T09:44:51;12.10;99.90
76172;DHT22;64929;51.178;4.138;2024-01-30T09:47:19;12.20;99.90
76172;DHT22;64929;51.178;4.138;2024-01-30T09:49:45;12.20;99.90
76172;DHT22;64929;51.178;4.138;2024-01-30T09:52:11;12.10;99.90
76172;DHT22;64929;51.178;4.138;2024-01-30T09:54:38;12.10;99.90
76172;DHT22;64929;51.178;4.138;2024-01-30T09:57:04;12.10;99.90
76172;DHT22;64929;51.178;4.138;2024-01-30T09:59:31;12.00;99.90
76172;DHT22;64929;51.178;4.138;2024-01-30T10:01:57;12.10;99.90
76172;DHT22;64929;51.178;4.138;2024-01-30T10:04:23;12.20;99.90
76172;DHT22;64929;51.178;4.138;2024-01-30T10:06:49;12.30;99.90
76172;DHT22;64929;51.178;4.138;2024-01-30T10:09:16;12.30;99.90
76172;DHT22;64929;51.178;4.138;2024-01-30T10:11:41;12.30;99.90
76172;DHT22;64929;51.178;4.138;2024-01-30T10:14:07;12.30;99.90
76172;DHT22;64929;51.178;4.138;2024-01-30T10:16:34;12.40;99.90
76172;DHT22;64929;51.178;4.138;2024-01-30T10:19:00;12.20;99.90
76172;DHT22;64929;51.178;4.138;2024-01-30T10:21:26;12.10;99.90
76172;DHT22;64929;51.178;4.138;2024-01-30T10:23:51;12.10;99.90
76172;DHT22;64929;51.178;4.138;2024-01-30T10:26:17;12.20;99.90
76172;DHT22;64929;51.178;4.138;2024-01-30T10:28:43;12.30;99.90
76172;DHT22;64929;51.178;4.138;2024-01-30T10:31:09;12.20;99.90
76172;DHT22;64929;51.178;4.138;2024-01-30T10:33:35;12.00;99.90
76172;DHT22;64929;51.178;4.138;2024-01-30T10:36:04;11.90;99.90
76172;DHT22;64929;51.178;4.138;2024-01-30T10:38:31;11.90;99.90
76172;DHT22;64929;51.178;4.138;2024-01-30T10:40:58;11.90;99.90
76172;DHT22;64929;51.178;4.138;2024-01-30T10:43:32;11.90;99.90
76172;DHT22;64929;51.178;4.138;2024-01-30T10:46:28;11.80;99.90
76172;DHT22;64929;51.178;4.138;2024-01-30T10:48:59;11.80;99.90
76172;DHT22;64929;51.178;4.138;2024-01-30T10:51:27;11.80;99.90
76172;DHT22;64929;51.178;4.138;2024-01-30T10:53:53;11.60;99.90
76172;DHT22;64929;51.178;4.138;2024-01-30T10:56:24;11.60;99.90
76172;DHT22;64929;51.178;4.138;2024-01-30T10:58:51;11.70;99.90
76172;DHT22;64929;51.178;4.138;2024-01-30T11:01:24;11.80;99.90
76172;DHT22;64929;51.178;4.138;2024-01-30T11:03:53;12.00;99.90
76172;DHT22;64929;51.178;4.138;2024-01-30T11:06:22;11.80;99.90
76172;DHT22;64929;51.178;4.138;2024-01-30T11:09:05;11.70;99.90
76172;DHT22;64929;51.178;4.138;2024-01-30T11:12:00;11.90;99.90
76172;DHT22;64929;51.178;4.138;2024-01-30T11:14:27;11.90;99.90
76172;DHT22;64929;51.178;4.138;2024-01-30T11:16:57;12.00;99.90
76172;DHT22;64929;51.178;4.138;2024-01-30T11:19:27;12.10;99.90
76172;DHT22;64929;51.178;4.138;2024-01-30T11:21:56;12.30;99.90
76172;DHT22;64929;51.178;4.138;2024-01-30T11:24:25;12.40;99.90
76172;DHT22;64929;51.178;4.138;2024-01-30T11:26:59;12.40;99.90
76172;DHT22;64929;51.178;4.138;2024-01-30T11:29:28;12.20;99.90
76172;DHT22;64929;51.178;4.138;2024-01-30T11:31:54;12.20;99.90
76172;DHT22;64929;51.178;4.138;2024-01-30T11:34:21;12.40;99.90
76172;DHT22;64929;51.178;4.138;2024-01-30T11:36:53;12.30;99.90
76172;DHT22;64929;51.178;4.138;2024-01-30T11:39:28;12.20;99.90
76172;DHT22;64929;51.178;4.138;2024-01-30T11:41:55;12.00;99.90
76172;DHT22;64929;51.178;4.138;2024-01-30T11:44:21;12.20;99.90
76172;DHT22;64929;51.178;4.138;2024-01-30T11:46:51;12.20;99.90
76172;DHT22;64929;51.178;4.138;2024-01-30T11:49:17;12.20;99.90
76172;DHT22;64929;51.178;4.138;2024-01-30T11:51:45;11.90;99.90
76172;DHT22;64929;51.178;4.138;2024-01-30T11:54:11;11.80;99.90
76172;DHT22;64929;51.178;4.138;2024-01-30T11:56:37;11.70;99.90
76172;DHT22;64929;51.178;4.138;2024-01-30T11:59:04;11.70;99.90
76172;DHT22;64929;51.178;4.138;2024-01-30T12:01:30;11.80;99.90
76172;DHT22;64929;51.178;4.138;2024-01-30T12:03:58;11.70;99.90
76172;DHT22;64929;51.178;4.138;2024-01-30T12:06:24;11.70;99.90
76172;DHT22;64929;51.178;4.138;2024-01-30T12:09:00;11.80;99.90
76172;DHT22;64929;51.178;4.138;2024-01-30T12:11:26;11.70;99.90
76172;DHT22;64929;51.178;4.138;2024-01-30T12:13:53;11.70;99.90
76172;DHT22;64929;51.178;4.138;2024-01-30T12:16:20;11.80;99.90
76172;DHT22;64929;51.178;4.138;2024-01-30T12:18:46;11.90;99.90
76172;DHT22;64929;51.178;4.138;2024-01-30T12:21:12;12.00;99.90
76172;DHT22;64929;51.178;4.138;2024-01-30T12:23:37;11.90;99.90
76172;DHT22;64929;51.178;4.138;2024-01-30T12:26:04;11.80;99.90
76172;DHT22;64929;51.178;4.138;2024-01-30T12:28:32;11.90;99.90
76172;DHT22;64929;51.178;4.138;2024-01-30T12:31:02;11.80;99.90
76172;DHT22;64929;51.178;4.138;2024-01-30T12:33:29;11.90;99.90
76172;DHT22;64929;51.178;4.138;2024-01-30T12:35:55;12.00;99.90
76172;DHT22;64929;51.178;4.138;2024-01-30T12:38:22;12.00;99.90
76172;DHT22;64929;51.178;4.138;2024-01-30T12:40:49;11.70;99.90
76172;DHT22;64929;51.178;4.138;2024-01-30T12:43:15;11.70;99.90
76172;DHT22;64929;51.178;4.138;2024-01-30T12:45:42;11.60;99.90
76172;DHT22;64929;51.178;4.138;2024-01-30T12:48:08;11.60;99.90
76172;DHT22;64929;51.178;4.138;2024-01-30T12:50:34;11.50;99.90
76172;DHT22;64929;51.178;4.138;2024-01-30T12:53:00;11.50;99.90
76172;DHT22;64929;51.178;4.138;2024-01-30T12:55:25;11.40;99.90
76172;DHT22;64929;51.178;4.138;2024-01-30T12:57:54;11.20;99.90
76172;DHT22;64929;51.178;4.138;2024-01-30T13:00:21;11.20;99.90
76172;DHT22;64929;51.178;4.138;2024-01-30T13:02:47;11.00;99.90
76172;DHT22;64929;51.178;4.138;2024-01-30T13:05:13;10.90;99.90
76172;DHT22;64929;51.178;4.138;2024-01-30T13:07:39;10.90;99.90
76172;DHT22;64929;51.178;4.138;2024-01-30T13:10:05;10.90;99.90
76172;DHT22;64929;51.178;4.138;2024-01-30T13:12:31;10.80;99.90
76172;DHT22;64929;51.178;4.138;2024-01-30T13:15:01;10.90;99.90
76172;DHT22;64929;51.178;4.138;2024-01-30T13:17:27;11.10;99.90
76172;DHT22;64929;51.178;4.138;2024-01-30T13:19:53;11.20;99.90
76172;DHT22;64929;51.178;4.138;2024-01-30T13:22:20;11.10;99.90
76172;DHT22;64929;51.178;4.138;2024-01-30T13:24:47;11.20;99.90
76172;DHT22;64929;51.178;4.138;2024-01-30T13:27:13;11.00;99.90
76172;DHT22;64929;51.178;4.138;2024-01-30T13:29:39;10.80;99.90
76172;DHT22;64929;51.178;4.138;2024-01-30T13:32:05;10.90;99.90
76172;DHT22;64929;51.178;4.138;2024-01-30T13:34:31;10.90;99.90
76172;DHT22;64929;51.178;4.138;2024-01-30T13:36:57;10.80;99.90
76172;DHT22;64929;51.178;4.138;2024-01-30T13:39:22;10.70;99.90
76172;DHT22;64929;51.178;4.138;2024-01-30T13:41:49;10.80;99.90
76172;DHT22;64929;51.178;4.138;2024-01-30T13:44:15;10.90;99.90
76172;DHT22;64929;51.178;4.138;2024-01-30T13:46:42;10.90;99.90
76172;DHT22;64929;51.178;4.138;2024-01-30T13:49:08;10.90;99.90
76172;DHT22;64929;51.178;4.138;2024-01-30T13:51:33;10.70;99.90
76172;DHT22;64929;51.178;4.138;2024-01-30T13:53:59;10.80;99.90
76172;DHT22;64929;51.178;4.138;2024-01-30T13:56:25;10.80;99.90
76172;DHT22;64929;51.178;4.138;2024-01-30T13:58:52;10.70;99.90
76172;DHT22;64929;51.178;4.138;2024-01-30T14:01:18;10.60;99.90
76172;DHT22;64929;51.178;4.138;2024-01-30T14:03:44;10.70;99.90
76172;DHT22;64929;51.178;4.138;2024-01-30T14:06:11;10.70;99.90
76172;DHT22;64929;51.178;4.138;2024-01-30T14:08:37;10.70;99.90
76172;DHT22;64929;51.178;4.138;2024-01-30T14:11:02;10.80;99.90
76172;DHT22;64929;51.178;4.138;2024-01-30T14:13:29;11.00;99.90
76172;DHT22;64929;51.178;4.138;2024-01-30T14:15:56;11.00;99.90
76172;DHT22;64929;51.178;4.138;2024-01-30T14:18:22;10.90;99.90
76172;DHT22;64929;51.178;4.138;2024-01-30T14:20:48;11.00;99.90
76172;DHT22;64929;51.178;4.138;2024-01-30T14:23:13;10.80;99.90
76172;DHT22;64929;51.178;4.138;2024-01-30T14:25:39;10.80;99.90
76172;DHT22;64929;51.178;4.138;2024-01-30T14:28:05;10.80;99.90
76172;DHT22;64929;51.178;4.138;2024-01-30T14:30:31;10.80;99.90
76172;DHT22;64929;51.178;4.138;2024-01-30T14:32:56;10.60;99.90
76172;DHT22;64929;51.178;4.138;2024-01-30T14:35:22;10.50;99.90
76172;DHT22;64929;51.178;4.138;2024-01-30T14:37:48;10.50;99.90
76172;DHT22;64929;51.178;4.138;2024-01-30T14:40:14;10.60;99.90
76172;DHT22;64929;51.178;4.138;2024-01-30T14:42:40;10.70;99.90
76172;DHT22;64929;51.178;4.138;2024-01-30T14:45:06;10.60;99.90
76172;DHT22;64929;51.178;4.138;2024-01-30T14:47:33;10.70;99.90
76172;DHT22;64929;51.178;4.138;2024-01-30T14:49:58;10.70;99.90
76172;DHT22;64929;51.178;4.138;2024-01-30T14:52:24;10.60;99.90
76172;DHT22;64929;51.178;4.138;2024-01-30T14:54:50;10.60;99.90
76172;DHT22;64929;51.178;4.138;2024-01-30T14:57:16;10.30;99.90
76172;DHT22;64929;51.178;4.138;2024-01-30T14:59:42;10.30;99.90
76172;DHT22;64929;51.178;4.138;2024-01-30T15:02:08;10.20;99.90
76172;DHT22;64929;51.178;4.138;2024-01-30T15:04:34;10.20;99.90
76172;DHT22;64929;51.178;4.138;2024-01-30T15:07:00;10.30;99.90
76172;DHT22;64929;51.178;4.138;2024-01-30T15:09:26;10.40;99.90
76172;DHT22;64929;51.178;4.138;2024-01-30T15:11:52;10.40;99.90
76172;DHT22;64929;51.178;4.138;2024-01-30T15:14:18;10.50;99.90
76172;DHT22;64929;51.178;4.138;2024-01-30T15:16:44;10.30;99.90
76172;DHT22;64929;51.178;4.138;2024-01-30T15:19:10;10.50;99.90
76172;DHT22;64929;51.178;4.138;2024-01-30T15:21:36;10.40;99.90
76172;DHT22;64929;51.178;4.138;2024-01-30T15:24:02;10.40;99.90
76172;DHT22;64929;51.178;4.138;2024-01-30T15:26:28;10.50;99.90
76172;DHT22;64929;51.178;4.138;2024-01-30T15:28:54;10.50;99.90